Fairchild, Wisconsin
Current Conditions -  °F | °C
As of 10:15 AM on Sunday 25 Jan 2015 (Local Time) from KBCK Reporting Station
Broken Clouds Broken Clouds  
Wind Chill: 15°   Ceiling: 4000
Heat Index: 25°   Visibility: 10mi
Dew Point: 13°   Wind: 10mph
Humidity: 61%   Direction: 90°E
Pressure: 29.97"   Gusts: NA
Location:  44.6°N, 90.96°W
Report Text: KBCK 251615Z AUTO 09009KT 10SM SCT026 BKN040 M04/M10 A2997 RMK AO2 T10381104
Loading
Personal Weather Stations






























Interactive Weather Map New forecast layout! Learn more

10-Day Weather Forecast

Advertisements
Track Severe Weather on mobile